createdAt,value
2022-08-04T00:02:24.298Z,21.87
2022-08-04T00:05:11.351Z,21.86
2022-08-04T00:08:14.820Z,21.83
2022-08-04T00:10:48.702Z,21.79
2022-08-04T00:13:16.999Z,21.75
2022-08-04T00:15:44.645Z,21.73
2022-08-04T00:18:15.549Z,21.70
2022-08-04T00:20:42.807Z,21.68
2022-08-04T00:23:10.911Z,21.64
2022-08-04T00:25:41.591Z,21.63
2022-08-04T00:28:09.044Z,21.61
2022-08-04T00:30:35.998Z,21.59
2022-08-04T00:33:03.004Z,21.55
2022-08-04T00:35:29.656Z,21.55
2022-08-04T00:37:57.220Z,21.51
2022-08-04T00:41:06.426Z,21.50
2022-08-04T00:44:05.945Z,21.46
2022-08-04T00:47:02.815Z,21.47
2022-08-04T00:49:51.298Z,21.44
2022-08-04T00:52:43.963Z,21.41
2022-08-04T00:55:28.994Z,21.39
2022-08-04T00:58:20.148Z,21.37
2022-08-04T01:01:03.205Z,21.33
2022-08-04T01:03:49.240Z,21.29
2022-08-04T01:06:34.916Z,21.25
2022-08-04T01:09:25.158Z,21.23
2022-08-04T01:12:06.955Z,21.23
2022-08-04T01:14:39.426Z,21.22
2022-08-04T01:17:28.787Z,21.18
2022-08-04T01:19:58.110Z,21.16
2022-08-04T01:22:44.917Z,21.16
2022-08-04T01:25:58.375Z,21.17
2022-08-04T01:28:50.259Z,21.15
2022-08-04T01:31:35.398Z,21.11
2022-08-04T01:34:05.770Z,21.05
2022-08-04T01:36:35.941Z,21.02
2022-08-04T01:39:24.021Z,21.01
2022-08-04T01:41:58.491Z,20.97
2022-08-04T01:44:29.751Z,20.95
2022-08-04T01:46:56.596Z,20.91
2022-08-04T01:49:39.701Z,20.88
2022-08-04T01:52:09.340Z,20.85
2022-08-04T01:54:38.332Z,20.85
2022-08-04T01:57:38.481Z,20.80
2022-08-04T01:59:53.721Z,20.76
2022-08-04T02:02:24.470Z,20.74
2022-08-04T02:04:51.255Z,20.71
2022-08-04T02:07:40.180Z,20.69
2022-08-04T02:10:41.876Z,20.69
2022-08-04T02:13:21.382Z,20.70
2022-08-04T02:16:13.497Z,20.71
2022-08-04T02:19:05.685Z,20.72
2022-08-04T02:21:42.644Z,20.72
2022-08-04T02:24:14.870Z,20.74
2022-08-04T02:26:46.555Z,20.75
2022-08-04T02:29:35.817Z,20.72
2022-08-04T02:32:06.473Z,20.73
2022-08-04T02:34:54.745Z,20.72
2022-08-04T02:37:24.335Z,20.73
2022-08-04T02:39:53.748Z,20.72
2022-08-04T02:42:20.407Z,20.73
2022-08-04T02:44:51.662Z,20.73
2022-08-04T02:47:22.432Z,20.72
2022-08-04T02:49:51.352Z,20.71
2022-08-04T02:52:19.951Z,20.70
2022-08-04T02:54:49.207Z,20.69
2022-08-04T02:57:19.003Z,20.67
2022-08-04T02:59:45.724Z,20.68
2022-08-04T03:02:12.276Z,20.66
2022-08-04T03:05:03.394Z,20.65
2022-08-04T03:07:58.135Z,20.65
2022-08-04T03:10:54.942Z,20.65
2022-08-04T03:14:00.698Z,20.65
2022-08-04T03:16:54.965Z,20.67
2022-08-04T03:19:24.532Z,20.68
2022-08-04T03:22:12.539Z,20.72
2022-08-04T03:25:03.243Z,20.75
2022-08-04T03:27:54.375Z,20.75
2022-08-04T03:30:37.937Z,20.75
2022-08-04T03:33:45.161Z,20.79
2022-08-04T03:36:17.403Z,20.80
2022-08-04T03:39:02.432Z,20.81
2022-08-04T03:41:55.130Z,20.79
2022-08-04T03:44:59.693Z,20.78
2022-08-04T03:47:49.834Z,20.77
2022-08-04T03:50:23.052Z,20.75
2022-08-04T03:53:13.896Z,20.75
2022-08-04T03:56:02.000Z,20.74
2022-08-04T03:59:01.297Z,20.71
2022-08-04T04:02:23.446Z,20.70
2022-08-04T04:05:59.350Z,20.75
2022-08-04T04:08:55.968Z,20.79
2022-08-04T04:11:34.156Z,20.86
2022-08-04T04:14:46.190Z,20.92
2022-08-04T04:17:37.739Z,20.99
2022-08-04T04:20:32.636Z,21.05
2022-08-04T04:23:23.820Z,21.08
2022-08-04T04:26:07.052Z,21.08
2022-08-04T04:29:07.673Z,21.12
2022-08-04T04:31:53.778Z,21.14
2022-08-04T04:34:46.200Z,21.18
2022-08-04T04:37:34.659Z,21.20
2022-08-04T04:40:32.167Z,21.21
2022-08-04T04:43:23.950Z,21.22
2022-08-04T04:46:32.377Z,21.20
2022-08-04T04:49:08.688Z,21.18
2022-08-04T04:51:48.103Z,21.14
2022-08-04T04:54:28.801Z,21.15
2022-08-04T04:57:10.806Z,21.17
2022-08-04T04:59:41.549Z,21.17
2022-08-04T05:02:24.089Z,21.16
2022-08-04T05:05:25.879Z,21.20
2022-08-04T05:07:58.639Z,21.27
2022-08-04T05:11:02.570Z,21.33
2022-08-04T05:14:38.595Z,21.36
2022-08-04T05:16:33.310Z,21.41
2022-08-04T05:19:34.281Z,21.42
2022-08-04T05:22:14.600Z,21.45
2022-08-04T05:24:46.689Z,21.48
2022-08-04T05:27:22.408Z,21.49
2022-08-04T05:29:59.141Z,21.51
2022-08-04T05:32:31.142Z,21.55
2022-08-04T05:35:07.210Z,21.55
2022-08-04T05:37:38.003Z,21.58
2022-08-04T05:40:07.032Z,21.58
2022-08-04T05:42:38.322Z,21.58
2022-08-04T05:45:07.791Z,21.60
2022-08-04T05:47:35.307Z,21.61
2022-08-04T05:50:06.608Z,21.63
2022-08-04T05:52:36.628Z,21.64
2022-08-04T05:55:05.538Z,21.67
2022-08-04T05:57:33.363Z,21.71
2022-08-04T06:00:19.508Z,21.74
2022-08-04T06:02:51.790Z,21.79
2022-08-04T06:05:19.167Z,21.83
2022-08-04T06:08:11.887Z,21.84
2022-08-04T06:10:37.658Z,21.84
2022-08-04T06:13:08.654Z,21.85
2022-08-04T06:15:39.261Z,21.87
2022-08-04T06:19:58.715Z,21.90
2022-08-04T06:21:03.819Z,21.95
2022-08-04T06:23:53.265Z,21.98
2022-08-04T06:26:26.456Z,22.02
2022-08-04T06:28:54.903Z,22.07
2022-08-04T06:32:27.408Z,22.13
2022-08-04T06:34:31.507Z,22.20
2022-08-04T06:36:59.368Z,22.23
2022-08-04T06:39:28.117Z,22.26
2022-08-04T06:42:20.705Z,22.31
2022-08-04T06:44:44.467Z,22.36
2022-08-04T06:47:13.887Z,22.40
2022-08-04T06:49:55.202Z,22.44
2022-08-04T06:52:28.818Z,22.50
2022-08-04T06:54:58.059Z,22.55
2022-08-04T06:57:29.030Z,22.63
2022-08-04T07:00:17.331Z,22.74
2022-08-04T07:02:53.577Z,22.84
2022-08-04T07:05:21.360Z,22.94
2022-08-04T07:07:57.305Z,23.03
2022-08-04T07:10:29.380Z,23.11
2022-08-04T07:13:01.465Z,23.13
2022-08-04T07:15:31.505Z,23.14
2022-08-04T07:18:00.318Z,23.15
2022-08-04T07:20:34.845Z,23.13
2022-08-04T07:23:06.449Z,23.10
2022-08-04T07:26:00.828Z,23.09
2022-08-04T07:28:26.151Z,23.18
2022-08-04T07:30:53.926Z,23.40
2022-08-04T07:33:21.467Z,23.48
2022-08-04T07:36:09.347Z,23.51
2022-08-04T07:38:48.729Z,23.46
2022-08-04T07:41:38.296Z,23.49
2022-08-04T07:44:05.338Z,23.58
2022-08-04T07:46:32.373Z,23.67
2022-08-04T07:49:01.065Z,23.65
2022-08-04T07:51:30.742Z,23.64
2022-08-04T07:53:58.714Z,23.61
2022-08-04T07:56:26.870Z,23.57
2022-08-04T07:58:54.245Z,23.50
2022-08-04T08:01:21.573Z,23.42
2022-08-04T08:03:48.985Z,23.37
2022-08-04T08:06:30.485Z,23.35
2022-08-04T08:09:02.338Z,23.35
2022-08-04T08:12:35.113Z,23.38
2022-08-04T08:14:32.067Z,23.48
2022-08-04T08:17:00.289Z,23.53
2022-08-04T08:19:26.985Z,23.55
2022-08-04T08:21:58.833Z,23.59
2022-08-04T08:24:27.282Z,23.69
2022-08-04T08:26:54.143Z,23.73
2022-08-04T08:29:21.282Z,23.74
2022-08-04T08:31:57.355Z,23.81
2022-08-04T08:34:28.954Z,23.89
2022-08-04T08:37:03.294Z,24.01
2022-08-04T08:39:40.325Z,24.13
2022-08-04T08:42:18.800Z,24.19
2022-08-04T08:45:12.816Z,24.22
2022-08-04T08:48:21.070Z,24.25
2022-08-04T08:50:47.572Z,24.22
2022-08-04T08:53:24.302Z,24.18
2022-08-04T08:56:02.805Z,24.17
2022-08-04T08:58:46.932Z,24.21
2022-08-04T09:01:41.980Z,24.27
2022-08-04T09:04:33.284Z,24.34
2022-08-04T09:07:13.839Z,24.39
2022-08-04T09:09:49.532Z,24.36
2022-08-04T09:12:31.550Z,24.38
2022-08-04T09:15:12.680Z,24.43
2022-08-04T09:18:02.216Z,24.50
2022-08-04T09:20:40.526Z,24.54
2022-08-04T09:23:24.079Z,24.56
2022-08-04T09:26:15.675Z,24.61
2022-08-04T09:28:57.891Z,24.64
2022-08-04T09:31:51.534Z,24.73
2022-08-04T09:35:03.109Z,24.85
2022-08-04T09:37:51.520Z,24.92
2022-08-04T09:40:53.615Z,24.99
2022-08-04T09:44:49.133Z,25.09
2022-08-04T09:47:39.857Z,25.18
2022-08-04T09:50:37.707Z,25.17
2022-08-04T09:53:24.986Z,25.25
2022-08-04T09:56:14.782Z,25.34
2022-08-04T09:58:54.081Z,25.42
2022-08-04T10:01:24.299Z,25.49
2022-08-04T10:03:55.139Z,25.55
2022-08-04T10:07:00.770Z,25.59
2022-08-04T10:10:12.297Z,25.65
2022-08-04T10:12:49.264Z,25.77
2022-08-04T10:15:36.882Z,25.87
2022-08-04T10:18:26.990Z,25.96
2022-08-04T10:21:15.637Z,26.06
2022-08-04T10:24:13.897Z,26.14
2022-08-04T10:26:43.374Z,26.21
2022-08-04T10:29:26.301Z,26.29
2022-08-04T10:32:39.991Z,26.42
2022-08-04T10:35:18.716Z,26.60
2022-08-04T10:38:03.979Z,26.62
2022-08-04T10:40:36.475Z,26.61
2022-08-04T10:43:30.851Z,26.64
2022-08-04T10:46:14.932Z,26.71
2022-08-04T10:48:54.107Z,26.78
2022-08-04T10:51:58.112Z,26.75
2022-08-04T10:54:44.011Z,26.83
2022-08-04T10:57:34.518Z,27.02
2022-08-04T11:00:10.440Z,27.17
2022-08-04T11:03:01.942Z,27.26
2022-08-04T11:05:44.649Z,27.46
2022-08-04T11:08:35.683Z,27.54
2022-08-04T11:11:24.492Z,27.54
2022-08-04T11:14:03.003Z,27.54
2022-08-04T11:16:37.996Z,27.67
2022-08-04T11:19:19.538Z,27.77
2022-08-04T11:22:08.957Z,27.92
2022-08-04T11:25:05.224Z,27.95
2022-08-04T11:27:43.522Z,27.99
2022-08-04T11:30:13.407Z,28.07
2022-08-04T11:32:55.943Z,28.20
2022-08-04T11:35:34.602Z,28.37
2022-08-04T11:38:29.181Z,28.46
2022-08-04T11:41:04.390Z,28.49
2022-08-04T11:44:01.956Z,28.47
2022-08-04T11:46:50.692Z,28.44
2022-08-04T11:49:56.836Z,28.49
2022-08-04T11:52:27.075Z,28.55
2022-08-04T11:54:55.813Z,28.69
2022-08-04T11:57:35.437Z,28.88
2022-08-04T12:00:07.287Z,29.00
2022-08-04T12:02:52.265Z,29.10
2022-08-04T12:05:37.116Z,29.23
2022-08-04T12:08:33.236Z,29.40
2022-08-04T12:11:21.359Z,29.56
2022-08-04T12:14:03.226Z,29.60
2022-08-04T12:17:01.696Z,29.65
2022-08-04T12:19:52.153Z,29.62
2022-08-04T12:22:32.360Z,29.68
2022-08-04T12:25:12.003Z,29.72
2022-08-04T12:28:00.891Z,29.70
2022-08-04T12:31:00.534Z,29.66
2022-08-04T12:34:03.548Z,29.68
2022-08-04T12:36:31.675Z,29.72
2022-08-04T12:39:13.107Z,29.81
2022-08-04T12:41:44.866Z,29.86
2022-08-04T12:44:37.492Z,29.90
2022-08-04T12:47:27.841Z,29.95
2022-08-04T12:50:00.313Z,29.95
2022-08-04T12:55:18.727Z,30.03
2022-08-04T12:57:47.825Z,30.05
2022-08-04T13:00:31.212Z,30.00
2022-08-04T13:03:10.116Z,29.93
2022-08-04T13:05:39.300Z,29.91
2022-08-04T13:08:07.439Z,29.97
2022-08-04T13:10:39.632Z,30.00
2022-08-04T13:13:12.370Z,30.09
2022-08-04T13:15:47.457Z,30.20
2022-08-04T13:18:29.256Z,30.29
2022-08-04T13:21:10.477Z,30.31
2022-08-04T13:24:10.704Z,30.28
2022-08-04T13:26:42.740Z,30.29
2022-08-04T13:29:59.770Z,30.37
2022-08-04T13:32:15.466Z,30.51
2022-08-04T13:34:49.562Z,30.61
2022-08-04T13:37:25.347Z,30.74
2022-08-04T13:39:55.279Z,30.87
2022-08-04T13:42:24.109Z,31.05
2022-08-04T13:44:56.039Z,31.14
2022-08-04T13:47:28.804Z,31.22
2022-08-04T13:50:16.383Z,31.21
2022-08-04T13:52:44.724Z,31.13
2022-08-04T13:55:32.653Z,30.93
2022-08-04T13:58:02.277Z,30.82
2022-08-04T14:00:41.721Z,30.84
2022-08-04T14:03:22.924Z,30.91
2022-08-04T14:06:28.651Z,31.12
2022-08-04T14:08:58.138Z,31.26
2022-08-04T14:12:06.480Z,31.34
2022-08-04T14:14:29.589Z,31.35
2022-08-04T14:17:05.811Z,31.28
2022-08-04T14:19:47.938Z,31.12
2022-08-04T14:22:26.610Z,31.04
2022-08-04T14:25:06.124Z,30.95
2022-08-04T14:27:48.169Z,30.81
2022-08-04T14:30:35.326Z,30.69
2022-08-04T14:34:04.008Z,30.56
2022-08-04T14:35:59.301Z,30.40
2022-08-04T14:38:45.344Z,30.29
2022-08-04T14:41:13.111Z,30.17
2022-08-04T14:43:52.929Z,30.07
2022-08-04T14:46:20.795Z,29.98
2022-08-04T14:49:23.214Z,29.93
2022-08-04T14:51:55.316Z,29.87
2022-08-04T14:54:33.074Z,29.79
2022-08-04T14:57:07.200Z,29.73
2022-08-04T14:59:59.002Z,29.59
2022-08-04T15:02:29.906Z,29.44
2022-08-04T15:04:58.687Z,29.33
2022-08-04T15:07:26.224Z,29.23
2022-08-04T15:09:53.823Z,29.13
2022-08-04T15:12:34.640Z,29.10
2022-08-04T15:15:20.038Z,29.05
2022-08-04T15:17:48.862Z,28.94
2022-08-04T15:20:17.525Z,28.88
2022-08-04T15:22:44.183Z,28.79
2022-08-04T15:25:12.037Z,28.72
2022-08-04T15:27:43.924Z,28.65
2022-08-04T15:30:13.672Z,28.63
2022-08-04T15:32:44.249Z,28.60
2022-08-04T15:35:17.403Z,28.63
2022-08-04T15:38:02.442Z,28.66
2022-08-04T15:40:37.105Z,28.67
2022-08-04T15:43:20.170Z,28.67
2022-08-04T15:46:33.034Z,28.69
2022-08-04T15:48:39.730Z,28.75
2022-08-04T15:51:14.744Z,28.94
2022-08-04T15:54:03.059Z,29.19
2022-08-04T15:56:28.618Z,29.38
2022-08-04T15:58:56.895Z,29.53
2022-08-04T16:01:24.366Z,29.71
2022-08-04T16:03:58.743Z,29.92
2022-08-04T16:06:29.144Z,30.19
2022-08-04T16:09:04.684Z,30.32
2022-08-04T16:11:37.844Z,30.35
2022-08-04T16:14:05.464Z,30.32
2022-08-04T16:16:49.215Z,30.32
2022-08-04T16:19:51.816Z,30.33
2022-08-04T16:22:41.320Z,30.40
2022-08-04T16:25:12.031Z,30.52
2022-08-04T16:27:41.509Z,30.52
2022-08-04T16:30:14.306Z,30.47
2022-08-04T16:32:52.276Z,30.36
2022-08-04T16:35:20.811Z,30.25
2022-08-04T16:37:53.894Z,30.16
2022-08-04T16:40:34.020Z,30.04
2022-08-04T16:43:13.269Z,29.90
2022-08-04T16:45:46.346Z,29.86
2022-08-04T16:48:18.249Z,29.81
2022-08-04T16:50:53.710Z,29.79
2022-08-04T16:53:57.965Z,29.66
2022-08-04T16:56:14.824Z,29.35
2022-08-04T16:58:50.645Z,29.08
2022-08-04T17:01:33.632Z,28.86
2022-08-04T17:04:13.327Z,28.63
2022-08-04T17:06:42.696Z,28.39
2022-08-04T17:09:17.890Z,28.25
2022-08-04T17:11:48.768Z,28.14
2022-08-04T17:14:28.099Z,28.00
2022-08-04T17:17:02.127Z,27.90
2022-08-04T17:19:29.190Z,27.78
2022-08-04T17:22:04.693Z,27.72
2022-08-04T17:24:38.321Z,27.62
2022-08-04T17:28:19.101Z,27.57
2022-08-04T17:29:53.874Z,27.57
2022-08-04T17:32:22.319Z,27.57
2022-08-04T17:34:55.190Z,27.50
2022-08-04T17:37:39.370Z,27.43
2022-08-04T17:40:18.048Z,27.32
2022-08-04T17:42:49.935Z,27.25
2022-08-04T17:45:50.669Z,27.21
2022-08-04T17:48:11.378Z,27.13
2022-08-04T17:50:51.608Z,27.05
2022-08-04T17:53:52.938Z,26.97
2022-08-04T17:56:29.355Z,26.85
2022-08-04T17:59:52.318Z,26.75
2022-08-04T18:02:08.911Z,26.64
2022-08-04T18:05:06.092Z,26.56
2022-08-04T18:08:38.395Z,26.45
2022-08-04T18:10:56.106Z,26.38
2022-08-04T18:13:28.072Z,26.31
2022-08-04T18:16:04.991Z,26.28
2022-08-04T18:18:31.842Z,26.26
2022-08-04T18:21:03.178Z,26.23
2022-08-04T18:23:32.732Z,26.15
2022-08-04T18:26:02.125Z,26.05
2022-08-04T18:28:30.752Z,25.95
2022-08-04T18:31:00.234Z,25.90
2022-08-04T18:33:39.939Z,25.85
2022-08-04T18:36:33.378Z,25.82
2022-08-04T18:39:13.481Z,25.76
2022-08-04T18:42:00.941Z,25.72
2022-08-04T18:44:30.962Z,25.65
2022-08-04T18:47:19.304Z,25.58
2022-08-04T18:50:59.983Z,25.52
2022-08-04T18:52:32.104Z,25.50
2022-08-04T18:55:01.649Z,25.44
2022-08-04T18:57:59.878Z,25.39
2022-08-04T19:03:05.150Z,25.24
2022-08-04T19:05:41.322Z,25.15
2022-08-04T19:08:32.585Z,25.12
2022-08-04T19:10:59.928Z,25.06
2022-08-04T19:13:27.758Z,25.01
2022-08-04T19:15:54.664Z,24.98
2022-08-04T19:18:25.981Z,24.93
2022-08-04T19:20:55.629Z,24.89
2022-08-04T19:24:10.169Z,24.85
2022-08-04T19:28:56.087Z,24.74
2022-08-04T19:31:28.393Z,24.66
2022-08-04T19:34:04.848Z,24.64
2022-08-04T19:36:33.133Z,24.66
2022-08-04T19:39:03.403Z,24.65
2022-08-04T19:41:32.001Z,24.65
2022-08-04T19:43:58.679Z,24.62
2022-08-04T19:46:27.974Z,24.57
2022-08-04T19:48:59.474Z,24.55
2022-08-04T19:51:30.431Z,24.53
2022-08-04T19:54:04.010Z,24.49
2022-08-04T19:56:39.942Z,24.43
2022-08-04T19:59:13.011Z,24.36
2022-08-04T20:01:45.338Z,24.33
2022-08-04T20:04:15.762Z,24.28
2022-08-04T20:06:43.129Z,24.25
2022-08-04T20:09:25.838Z,24.22
2022-08-04T20:11:55.514Z,24.15
2022-08-04T20:14:32.115Z,24.10
2022-08-04T20:17:03.191Z,24.06
2022-08-04T20:19:36.599Z,24.03
2022-08-04T20:22:03.284Z,24.01
2022-08-04T20:24:40.530Z,23.99
2022-08-04T20:27:15.904Z,23.95
2022-08-04T20:29:49.652Z,23.93
2022-08-04T20:32:21.857Z,23.89
2022-08-04T20:34:53.400Z,23.86
2022-08-04T20:37:23.580Z,23.83
2022-08-04T20:39:55.480Z,23.82
2022-08-04T20:42:27.437Z,23.81
2022-08-04T20:45:00.200Z,23.78
2022-08-04T20:47:35.306Z,23.74
2022-08-04T20:50:08.737Z,23.69
2022-08-04T20:52:37.714Z,23.50
2022-08-04T20:55:08.119Z,23.40
2022-08-04T20:57:48.311Z,23.37
2022-08-04T21:00:29.993Z,23.30
2022-08-04T21:02:58.038Z,23.24
2022-08-04T21:05:27.315Z,23.23
2022-08-04T21:07:57.387Z,23.22
2022-08-04T21:10:27.726Z,23.17
2022-08-04T21:12:54.816Z,23.17
2022-08-04T21:15:50.713Z,23.18
2022-08-04T21:18:12.747Z,23.18
2022-08-04T21:20:43.108Z,23.20
2022-08-04T21:23:10.067Z,23.23
2022-08-04T21:25:42.912Z,23.25
2022-08-04T21:28:10.398Z,23.28
2022-08-04T21:30:52.300Z,23.28
2022-08-04T21:33:22.826Z,23.27
2022-08-04T21:35:54.397Z,23.27
2022-08-04T21:38:25.218Z,23.26
2022-08-04T21:40:56.823Z,23.25
2022-08-04T21:43:27.438Z,23.26
2022-08-04T21:45:55.954Z,23.28
2022-08-04T21:51:59.399Z,23.27
2022-08-04T21:54:07.649Z,23.20
2022-08-04T21:56:35.587Z,23.16
2022-08-04T21:59:07.162Z,23.08
2022-08-04T22:01:52.443Z,23.01
2022-08-04T22:04:21.534Z,23.00
2022-08-04T22:06:52.401Z,22.99
2022-08-04T22:09:21.846Z,22.96
2022-08-04T22:11:51.050Z,22.93
2022-08-04T22:14:27.391Z,22.88
2022-08-04T22:17:00.874Z,22.78
2022-08-04T22:19:50.362Z,22.70
2022-08-04T22:22:25.576Z,22.69
2022-08-04T22:24:58.960Z,22.71
2022-08-04T22:27:44.742Z,22.66
2022-08-04T22:30:17.071Z,22.55
2022-08-04T22:32:46.252Z,22.54
2022-08-04T22:35:35.464Z,22.54
2022-08-04T22:38:06.316Z,22.54
2022-08-04T22:40:47.558Z,22.54
2022-08-04T22:43:32.602Z,22.52
2022-08-04T22:46:06.319Z,22.50
2022-08-04T22:48:35.006Z,22.52
2022-08-04T22:51:02.833Z,22.49
2022-08-04T22:53:30.892Z,22.42
2022-08-04T22:56:09.762Z,22.35
2022-08-04T22:58:45.562Z,22.30
2022-08-04T23:01:17.087Z,22.28
2022-08-04T23:03:51.185Z,22.29
2022-08-04T23:06:24.243Z,22.29
2022-08-04T23:08:51.482Z,22.29
2022-08-04T23:11:18.384Z,22.29
2022-08-04T23:13:45.405Z,22.28
2022-08-04T23:16:12.400Z,22.29
2022-08-04T23:18:41.939Z,22.28
2022-08-04T23:21:10.283Z,22.23
2022-08-04T23:23:38.140Z,22.17
2022-08-04T23:26:13.921Z,22.10
2022-08-04T23:28:41.747Z,21.92
2022-08-04T23:31:10.117Z,21.72
2022-08-04T23:33:51.181Z,21.65
2022-08-04T23:36:19.168Z,21.64
2022-08-04T23:38:59.594Z,21.66
2022-08-04T23:41:54.113Z,21.68
2022-08-04T23:44:17.547Z,21.68
2022-08-04T23:46:51.214Z,21.66
2022-08-04T23:49:20.165Z,21.60
2022-08-04T23:51:49.670Z,21.58
2022-08-04T23:54:16.760Z,21.58
2022-08-04T23:56:52.381Z,21.53
2022-08-04T23:59:49.023Z,21.49
